Time;durP1;ratioP1;P1;durP2;ratioP2;P2;SDS_P1;SDS_P2;PMS_P1;PMS_P2;Temp;Humidity;BMP_temperature;BMP_pressure;BME280_temperature;BME280_humidity;BME280_pressure;Samples;Min_cycle;Max_cycle;Signal;HPM_P1;HPM_P2
2022/12/09 00:00:48;;;;;;;9.93;6.80;;;1.80;99.90;2.70;95918.00;;;;5033477;28;20432;-86
2022/12/09 00:03:38;;;;;;;10.70;7.77;;;2.30;99.90;2.70;95918.00;;;;5035272;23;20496;-65
2022/12/09 00:06:29;;;;;;;7.73;6.60;;;1.70;99.90;2.50;95924.00;;;;5021340;28;20467;-64
2022/12/09 00:09:18;;;;;;;8.60;7.07;;;1.60;99.90;2.60;95910.00;;;;5029915;28;20425;-66
2022/12/09 00:12:07;;;;;;;10.73;7.33;;;1.60;99.90;2.60;95912.00;;;;5030889;28;20495;-64
2022/12/09 00:14:56;;;;;;;12.87;7.80;;;1.50;99.90;2.60;95902.00;;;;5029956;28;20456;-65
2022/12/09 00:17:44;;;;;;;12.30;7.60;;;1.50;99.90;2.70;95893.00;;;;5028551;28;20416;-65
2022/12/09 00:20:35;;;;;;;13.97;7.47;;;1.50;99.90;2.70;95911.00;;;;5021349;28;20432;-65
2022/12/09 00:23:23;;;;;;;13.93;8.03;;;1.50;99.90;2.80;95903.00;;;;5028781;28;20467;-64
2022/12/09 00:26:13;;;;;;;16.97;9.47;;;1.50;99.90;2.80;95897.00;;;;5031708;28;20461;-65
2022/12/09 00:29:02;;;;;;;12.50;7.63;;;1.60;99.90;2.70;95876.00;;;;5030878;28;20783;-64
2022/12/09 00:31:51;;;;;;;12.03;6.87;;;1.50;99.90;2.50;95876.00;;;;5034957;28;20424;-66
2022/12/09 00:34:41;;;;;;;16.57;9.20;;;1.60;99.90;2.30;95879.00;;;;5035118;28;20444;-64
2022/12/09 00:37:31;;;;;;;11.00;7.17;;;1.50;99.90;2.20;95888.00;;;;5032891;28;20424;-65
2022/12/09 00:40:20;;;;;;;16.00;8.93;;;1.40;99.90;2.20;95889.00;;;;5027849;28;20417;-64
2022/12/09 00:43:09;;;;;;;13.13;7.77;;;1.40;99.90;2.00;95886.00;;;;5018322;28;20991;-65
2022/12/09 00:45:58;;;;;;;14.13;7.50;;;1.30;99.90;2.00;95894.00;;;;5030186;28;20467;-64
2022/12/09 00:48:47;;;;;;;10.77;7.10;;;1.20;99.90;1.60;95893.00;;;;5029681;28;20468;-65
2022/12/09 00:51:36;;;;;;;11.17;8.50;;;1.10;99.90;1.60;95899.00;;;;5028530;28;20432;-64
2022/12/09 00:54:26;;;;;;;16.27;8.83;;;1.00;99.90;1.80;95902.00;;;;5028421;28;20452;-65
2022/12/09 00:57:15;;;;;;;14.07;7.83;;;1.10;99.90;2.00;95894.00;;;;5029572;28;20548;-65
2022/12/09 01:00:04;;;;;;;14.13;7.47;;;1.00;99.90;2.10;95897.00;;;;5029713;28;20421;-65
2022/12/09 01:02:54;;;;;;;10.03;8.67;;;1.00;99.90;2.00;95898.00;;;;5029906;28;20432;-65
2022/12/09 01:05:43;;;;;;;10.87;7.83;;;0.90;99.90;1.90;95905.00;;;;5032673;28;20470;-65
2022/12/09 01:08:32;;;;;;;11.63;6.87;;;0.90;99.90;1.90;95901.00;;;;5037790;28;20420;-64
2022/12/09 01:11:26;;;;;;;15.00;8.53;;;0.90;99.90;1.90;95906.00;;;;5015956;28;20442;-63
2022/12/09 01:14:15;;;;;;;15.57;7.80;;;0.90;99.90;1.90;95904.00;;;;5028649;28;20472;-65
2022/12/09 01:17:04;;;;;;;12.10;7.70;;;0.80;99.90;1.90;95896.00;;;;5020469;28;20448;-65
2022/12/09 01:19:52;;;;;;;13.17;8.80;;;0.80;99.90;1.90;95883.00;;;;5023847;28;20420;-64
2022/12/09 01:22:41;;;;;;;13.07;8.97;;;0.80;99.90;1.70;95877.00;;;;5029435;28;20570;-65
2022/12/09 01:25:30;;;;;;;12.90;8.53;;;0.70;99.90;1.40;95885.00;;;;5028816;28;20834;-65
2022/12/09 01:28:20;;;;;;;10.17;7.90;;;0.70;99.90;1.40;95896.00;;;;5028425;28;20420;-63
2022/12/09 01:31:11;;;;;;;11.63;7.57;;;0.60;99.90;1.70;95878.00;;;;5030025;28;20416;-64
2022/12/09 01:34:00;;;;;;;13.80;7.70;;;0.60;99.90;1.70;95886.00;;;;5030362;28;20479;-65
2022/12/09 01:36:49;;;;;;;18.67;11.07;;;0.60;99.90;1.80;95886.00;;;;5029062;28;20419;-64
2022/12/09 01:39:37;;;;;;;12.33;8.53;;;0.70;99.90;1.80;95870.00;;;;5028911;28;20425;-64
2022/12/09 01:42:27;;;;;;;16.63;9.60;;;0.60;99.90;1.70;95869.00;;;;5027909;28;20417;-65
2022/12/09 01:45:41;;;;;;;12.83;8.57;;;0.70;99.90;1.40;95877.00;;;;5028555;28;20456;-65
2022/12/09 01:48:34;;;;;;;11.13;7.63;;;0.60;99.90;1.60;95882.00;;;;5028402;28;20428;-65
2022/12/09 01:51:23;;;;;;;11.27;8.27;;;0.60;99.90;1.80;95874.00;;;;5029262;28;20829;-65
2022/12/09 01:54:12;;;;;;;13.60;8.40;;;0.80;99.90;1.70;95873.00;;;;5028860;28;20495;-65
2022/12/09 01:57:01;;;;;;;12.23;8.03;;;0.60;99.90;1.90;95881.00;;;;5027808;28;20428;-64
2022/12/09 01:59:51;;;;;;;12.30;7.17;;;0.70;99.90;1.80;95882.00;;;;5023951;28;20822;-64
2022/12/09 02:02:45;;;;;;;9.43;7.00;;;0.70;99.90;1.90;95873.00;;;;5028345;28;20425;-65
2022/12/09 02:05:35;;;;;;;11.20;6.87;;;0.70;99.90;1.90;95881.00;;;;5028922;28;20444;-64
2022/12/09 02:08:24;;;;;;;8.53;6.93;;;0.70;99.90;1.90;95880.00;;;;5025975;28;21132;-65
2022/12/09 02:11:25;;;;;;;11.93;7.97;;;0.70;99.90;1.90;95872.00;;;;5029278;28;20445;-64
2022/12/09 02:14:21;;;;;;;11.30;7.93;;;0.70;99.90;1.90;95864.00;;;;5027879;28;20494;-65
2022/12/09 02:17:25;;;;;;;8.50;6.60;;;0.80;99.90;2.00;95849.00;;;;5031422;28;20416;-65
2022/12/09 02:20:23;;;;;;;12.50;6.73;;;0.80;99.90;1.90;95843.00;;;;5032959;28;20505;-64
2022/12/09 02:23:19;;;;;;;10.07;8.60;;;0.80;99.90;1.40;95839.00;;;;5031561;28;20435;-65
2022/12/09 02:26:17;;;;;;;14.17;9.23;;;0.70;99.90;1.40;95841.00;;;;5028217;28;20455;-63
2022/12/09 02:29:31;;;;;;;6.83;6.00;;;0.60;99.90;1.30;95842.00;;;;5032358;28;20424;-65
2022/12/09 02:32:50;;;;;;;9.53;7.00;;;0.60;99.90;1.80;95830.00;;;;5031148;28;20428;-65
2022/12/09 02:35:44;;;;;;;11.87;5.47;;;0.60;99.90;1.80;95832.00;;;;5018291;28;20854;-65
2022/12/09 02:38:34;;;;;;;14.80;7.27;;;0.70;99.90;1.90;95828.00;;;;5030943;28;20436;-65
2022/12/09 02:41:27;;;;;;;11.43;7.43;;;0.70;99.90;1.90;95837.00;;;;5032775;28;20623;-65
2022/12/09 02:44:20;;;;;;;11.10;7.20;;;0.40;99.90;2.10;95838.00;;;;5031030;28;20951;-65
2022/12/09 02:47:14;;;;;;;11.93;8.07;;;0.80;99.90;2.00;95833.00;;;;5027704;28;20417;-64
2022/12/09 02:50:09;;;;;;;12.50;8.47;;;0.80;99.90;2.10;95839.00;;;;5035655;28;20448;-64
2022/12/09 02:53:02;;;;;;;13.20;6.93;;;0.90;99.90;1.90;95830.00;;;;5027284;28;20424;-64
2022/12/09 02:55:53;;;;;;;12.33;7.07;;;0.90;99.90;1.70;95825.00;;;;5032228;28;20432;-65
2022/12/09 02:58:42;;;;;;;12.10;6.43;;;0.80;99.90;1.60;95814.00;;;;5025077;28;20436;-65
2022/12/09 03:01:36;;;;;;;10.07;7.07;;;0.80;99.90;1.90;95790.00;;;;5029666;28;20432;-65
2022/12/09 03:04:28;;;;;;;9.27;5.70;;;0.80;99.90;1.40;95804.00;;;;5031077;28;21090;-65
2022/12/09 03:07:25;;;;;;;9.93;6.67;;;0.70;99.90;1.20;95794.00;;;;5030756;28;20921;-65
2022/12/09 03:10:23;;;;;;;7.03;5.40;;;0.70;99.90;1.40;95801.00;;;;5031336;28;20812;-65
2022/12/09 03:13:17;;;;;;;10.07;5.87;;;0.60;99.90;1.80;95792.00;;;;5031208;28;20459;-64
2022/12/09 03:16:16;;;;;;;10.83;6.10;;;0.70;99.90;1.90;95787.00;;;;5031514;28;20487;-65
2022/12/09 03:19:09;;;;;;;6.60;5.67;;;0.70;99.90;1.60;95778.00;;;;5030345;28;20443;-66
2022/12/09 03:22:04;;;;;;;9.40;5.93;;;0.70;99.90;1.30;95790.00;;;;5031885;28;20420;-65
2022/12/09 03:24:59;;;;;;;7.47;5.97;;;0.60;99.90;1.60;95793.00;;;;5030823;28;20460;-64
2022/12/09 03:27:54;;;;;;;8.47;6.73;;;0.60;99.90;1.80;95788.00;;;;5024852;28;20925;-64
2022/12/09 03:30:45;;;;;;;9.40;6.87;;;0.70;99.90;2.00;95782.00;;;;5030588;28;20424;-64
2022/12/09 03:33:34;;;;;;;11.20;6.07;;;0.80;99.90;2.00;95787.00;;;;5031406;28;20472;-63
2022/12/09 03:36:24;;;;;;;11.83;7.70;;;0.80;99.90;2.00;95782.00;;;;5063653;23;20514;-68
2022/12/09 03:39:17;;;;;;;10.17;7.23;;;0.90;99.90;2.10;95779.00;;;;5058962;28;20473;-69
2022/12/09 03:42:12;;;;;;;9.97;6.67;;;0.90;99.90;2.20;95781.00;;;;5056601;28;20434;-69
2022/12/09 03:45:08;;;;;;;9.57;5.43;;;0.90;99.90;2.00;95765.00;;;;5050990;28;20427;-68
2022/12/09 03:47:58;;;;;;;9.33;6.53;;;0.90;99.90;1.80;95776.00;;;;5028985;28;20432;-68
2022/12/09 03:50:52;;;;;;;10.43;7.67;;;0.90;99.90;1.60;95776.00;;;;5030615;28;20421;-68
2022/12/09 03:53:47;;;;;;;10.17;6.87;;;0.90;99.90;1.60;95775.00;;;;5031273;28;20841;-68
2022/12/09 03:56:44;;;;;;;8.50;6.30;;;0.80;99.90;1.80;95785.00;;;;5031704;28;20441;-68
2022/12/09 03:59:36;;;;;;;8.53;6.50;;;0.80;99.90;1.90;95782.00;;;;5030169;28;20432;-69
2022/12/09 04:02:27;;;;;;;10.10;6.57;;;0.80;99.90;1.80;95778.00;;;;5040781;28;20942;-68
2022/12/09 04:05:15;;;;;;;8.20;6.83;;;0.80;99.90;2.10;95786.00;;;;5035530;28;20429;-68
2022/12/09 04:08:05;;;;;;;10.53;6.30;;;0.90;99.90;2.10;95790.00;;;;5036505;28;20420;-69
2022/12/09 04:10:54;;;;;;;8.10;5.23;;;0.90;99.90;1.90;95793.00;;;;5030923;28;20805;-69
2022/12/09 04:13:43;;;;;;;8.13;5.17;;;0.90;99.90;2.00;95783.00;;;;5030803;28;20476;-68
2022/12/09 04:16:32;;;;;;;6.10;4.73;;;0.90;99.90;2.10;95787.00;;;;5026795;28;20451;-68
2022/12/09 04:19:22;;;;;;;7.67;5.63;;;1.00;99.90;2.20;95780.00;;;;5043397;28;20424;-68
2022/12/09 04:22:10;;;;;;;8.87;4.83;;;1.00;99.90;2.20;95789.00;;;;5025239;28;20440;-68
2022/12/09 04:24:59;;;;;;;10.23;6.57;;;1.00;99.90;2.00;95797.00;;;;5036764;28;20618;-68
2022/12/09 04:27:48;;;;;;;11.77;7.63;;;1.10;99.90;1.90;95793.00;;;;5017620;28;21029;-68
2022/12/09 04:30:37;;;;;;;7.93;5.47;;;1.00;99.90;2.00;95800.00;;;;5040917;28;20856;-69
2022/12/09 04:33:26;;;;;;;9.50;6.47;;;1.00;99.90;2.20;95800.00;;;;5042732;28;20419;-69
2022/12/09 04:36:18;;;;;;;8.33;5.43;;;1.00;99.90;2.30;95803.00;;;;5037823;28;20824;-68
2022/12/09 04:39:07;;;;;;;8.13;5.90;;;1.10;99.90;2.20;95802.00;;;;5028600;28;20832;-68
2022/12/09 04:41:56;;;;;;;10.07;6.83;;;1.00;99.90;2.30;95808.00;;;;5031800;28;20950;-68
2022/12/09 04:44:45;;;;;;;9.40;6.07;;;1.10;99.90;2.40;95807.00;;;;5047407;28;20447;-69
2022/12/09 04:47:34;;;;;;;8.53;6.37;;;1.10;99.90;2.50;95820.00;;;;5040617;28;20451;-68
2022/12/09 04:50:22;;;;;;;10.53;6.07;;;1.20;99.90;2.40;95801.00;;;;5030155;28;20465;-69
2022/12/09 04:53:13;;;;;;;8.63;5.70;;;1.20;99.90;2.30;95794.00;;;;5029654;28;20798;-68
2022/12/09 04:56:05;;;;;;;10.27;6.03;;;1.20;99.90;2.20;95799.00;;;;5018668;28;20477;-69
2022/12/09 04:58:53;;;;;;;7.00;4.50;;;1.20;99.90;1.90;95793.00;;;;5035511;28;20430;-68
2022/12/09 05:01:42;;;;;;;6.27;5.53;;;1.10;99.90;2.00;95790.00;;;;5033755;28;20435;-68
2022/12/09 05:04:31;;;;;;;8.13;5.40;;;1.10;99.90;2.10;95790.00;;;;5037943;28;20428;-69
2022/12/09 05:07:22;;;;;;;8.70;5.13;;;1.10;99.90;2.10;95792.00;;;;5036727;28;20451;-69
2022/12/09 05:10:12;;;;;;;8.23;5.87;;;1.20;99.90;2.10;95790.00;;;;5030612;28;20418;-68
2022/12/09 05:13:01;;;;;;;7.70;4.87;;;1.10;99.90;2.20;95788.00;;;;5032804;28;20421;-68
2022/12/09 05:15:50;;;;;;;6.83;5.40;;;1.10;99.90;2.30;95785.00;;;;5028780;28;20470;-68
2022/12/09 05:18:39;;;;;;;7.37;4.17;;;1.20;99.90;2.20;95787.00;;;;5041244;28;20423;-69
2022/12/09 05:21:28;;;;;;;8.40;6.07;;;1.30;99.90;2.20;95786.00;;;;5019389;28;20424;-68
2022/12/09 05:24:17;;;;;;;8.80;5.27;;;1.20;99.90;2.40;95777.00;;;;5028717;28;20432;-69
2022/12/09 05:27:07;;;;;;;8.47;5.30;;;1.20;99.90;2.50;95773.00;;;;5027626;28;20535;-69
2022/12/09 05:29:56;;;;;;;6.43;5.17;;;1.20;99.90;2.60;95777.00;;;;5032419;28;20430;-68
2022/12/09 05:32:45;;;;;;;10.87;5.70;;;1.30;99.90;2.60;95776.00;;;;5012482;28;20432;-69
2022/12/09 05:35:34;;;;;;;6.90;5.13;;;1.30;99.90;2.60;95777.00;;;;5041971;28;20463;-69
2022/12/09 05:38:27;;;;;;;9.77;5.73;;;1.30;99.90;2.60;95777.00;;;;5040393;28;20427;-69
2022/12/09 05:41:17;;;;;;;5.70;4.97;;;1.40;99.90;2.60;95764.00;;;;5036987;28;20431;-69
2022/12/09 05:44:07;;;;;;;11.03;6.37;;;1.40;99.90;2.60;95767.00;;;;5032812;28;20432;-68
2022/12/09 05:46:56;;;;;;;7.73;5.57;;;1.40;99.90;2.60;95760.00;;;;5027847;28;20460;-69
2022/12/09 05:49:45;;;;;;;7.80;6.07;;;1.40;99.90;2.70;95753.00;;;;5028032;28;20427;-69
2022/12/09 05:52:35;;;;;;;6.83;4.27;;;1.40;99.90;2.80;95744.00;;;;5036700;28;20446;-69
2022/12/09 05:55:24;;;;;;;9.07;5.57;;;1.50;99.90;2.70;95744.00;;;;5045796;28;20475;-68
2022/12/09 05:58:13;;;;;;;7.77;5.77;;;1.50;99.90;2.60;95745.00;;;;5034483;28;20432;-69
2022/12/09 06:01:06;;;;;;;7.30;4.83;;;1.50;99.90;2.50;95756.00;;;;5021724;28;20424;-68
2022/12/09 06:03:55;;;;;;;9.73;6.03;;;1.50;99.90;2.30;95739.00;;;;5039679;28;21005;-69
2022/12/09 06:06:44;;;;;;;8.70;6.23;;;1.40;99.90;2.60;95744.00;;;;5032416;28;20448;-68
2022/12/09 06:09:33;;;;;;;7.80;5.60;;;1.40;99.90;2.70;95735.00;;;;5048209;28;20423;-69
2022/12/09 06:12:22;;;;;;;5.80;4.93;;;1.50;99.90;2.80;95741.00;;;;5033305;28;20412;-69
2022/12/09 06:15:11;;;;;;;5.47;4.57;;;1.50;99.90;2.80;95734.00;;;;5027927;28;20464;-69
2022/12/09 06:18:05;;;;;;;8.27;7.10;;;1.50;99.90;2.80;95742.00;;;;5042402;28;20424;-69
2022/12/09 06:20:53;;;;;;;6.07;4.97;;;1.50;99.90;2.90;95742.00;;;;5021431;28;21439;-69
2022/12/09 06:23:43;;;;;;;6.50;5.30;;;1.60;99.90;3.00;95738.00;;;;5038439;28;20419;-69
2022/12/09 06:26:31;;;;;;;6.80;4.97;;;1.60;99.90;2.90;95732.00;;;;5044858;28;20443;-69
2022/12/09 06:29:20;;;;;;;6.07;5.47;;;1.60;99.90;2.90;95730.00;;;;5047979;28;20507;-69
2022/12/09 06:32:09;;;;;;;11.50;7.73;;;1.60;99.90;2.90;95726.00;;;;5029862;28;20424;-68
2022/12/09 06:35:00;;;;;;;7.57;6.43;;;1.60;99.90;2.90;95727.00;;;;5027504;28;20550;-68
2022/12/09 06:37:52;;;;;;;8.50;6.47;;;1.60;99.90;2.80;95718.00;;;;5038801;28;20457;-68
2022/12/09 06:40:41;;;;;;;8.00;5.93;;;1.60;99.90;2.90;95722.00;;;;5035333;28;20784;-69
2022/12/09 06:43:30;;;;;;;9.90;6.83;;;1.60;99.90;2.80;95721.00;;;;5050895;28;20442;-68
2022/12/09 06:46:22;;;;;;;8.03;5.80;;;1.60;99.90;2.80;95706.00;;;;5021232;28;20509;-69
2022/12/09 06:49:12;;;;;;;7.50;6.13;;;1.60;99.90;2.70;95695.00;;;;5033480;28;20430;-69
2022/12/09 06:52:02;;;;;;;10.10;5.83;;;1.60;99.90;2.70;95705.00;;;;5043957;28;20514;-69
2022/12/09 06:54:51;;;;;;;9.70;5.70;;;1.50;99.90;2.80;95706.00;;;;5030553;28;20416;-69
2022/12/09 06:57:40;;;;;;;10.33;5.40;;;1.50;99.90;2.80;95714.00;;;;5047083;28;20835;-69
2022/12/09 07:00:28;;;;;;;7.20;4.30;;;1.50;99.90;2.70;95701.00;;;;5034413;28;20441;-69
2022/12/09 07:03:17;;;;;;;4.40;4.00;;;1.50;99.90;2.70;95696.00;;;;5021476;28;20472;-69
2022/12/09 07:06:07;;;;;;;8.23;5.33;;;1.50;99.90;2.80;95695.00;;;;5029171;28;20868;-69
2022/12/09 07:08:59;;;;;;;8.33;5.43;;;1.50;99.90;2.80;95693.00;;;;5026827;28;20490;-69
2022/12/09 07:11:49;;;;;;;6.73;5.63;;;1.60;99.90;2.50;95682.00;;;;5026841;28;20440;-69
2022/12/09 07:14:38;;;;;;;9.17;5.60;;;1.60;99.90;2.50;95665.00;;;;5031063;28;20417;-69
2022/12/09 07:17:27;;;;;;;7.20;5.97;;;1.60;99.90;2.60;95675.00;;;;5031385;28;20831;-69
2022/12/09 07:20:16;;;;;;;7.90;6.03;;;1.60;99.90;2.70;95659.00;;;;5029979;28;20431;-68
2022/12/09 07:23:05;;;;;;;8.93;5.80;;;1.60;99.90;2.70;95670.00;;;;5030888;28;20439;-69
2022/12/09 07:25:57;;;;;;;9.77;6.57;;;1.60;99.90;2.60;95671.00;;;;5037972;28;20447;-68
2022/12/09 07:28:49;;;;;;;8.23;6.10;;;1.60;99.90;2.60;95674.00;;;;5046345;28;20419;-68
2022/12/09 07:31:38;;;;;;;7.70;6.77;;;1.60;99.90;2.70;95677.00;;;;5028199;28;20416;-68
2022/12/09 07:34:27;;;;;;;9.97;6.43;;;1.60;99.90;3.00;95661.00;;;;5022983;28;20448;-68
2022/12/09 07:37:16;;;;;;;8.77;6.37;;;1.70;99.90;3.00;95663.00;;;;5024549;28;20460;-68
2022/12/09 07:40:07;;;;;;;7.40;5.90;;;1.70;99.90;3.00;95660.00;;;;5024232;28;20439;-68
2022/12/09 07:42:57;;;;;;;8.73;6.07;;;1.80;99.90;3.10;95646.00;;;;5025666;28;20441;-69
2022/12/09 07:45:48;;;;;;;10.50;6.97;;;1.80;99.90;3.20;95650.00;;;;5022901;28;20803;-69
2022/12/09 07:48:36;;;;;;;9.70;6.30;;;1.90;99.90;3.30;95661.00;;;;5025200;28;20436;-68
2022/12/09 07:51:26;;;;;;;11.03;6.87;;;2.00;99.90;3.40;95651.00;;;;5029999;28;20435;-68
2022/12/09 07:54:18;;;;;;;10.57;6.43;;;2.10;99.90;3.30;95659.00;;;;5026827;28;20890;-68
2022/12/09 07:57:06;;;;;;;14.33;6.93;;;2.10;99.90;3.30;95667.00;;;;5028651;28;20991;-69
2022/12/09 07:59:57;;;;;;;10.17;6.70;;;2.10;99.90;3.50;95663.00;;;;5023720;28;20910;-68
2022/12/09 08:02:46;;;;;;;6.20;5.30;;;2.20;99.90;3.60;95662.00;;;;5030507;28;20420;-68
2022/12/09 08:05:35;;;;;;;6.27;4.87;;;2.30;99.90;3.70;95666.00;;;;5039810;28;20443;-68
2022/12/09 08:08:24;;;;;;;5.13;4.23;;;2.30;99.90;3.60;95665.00;;;;5039670;28;20820;-69
2022/12/09 08:11:16;;;;;;;10.30;6.43;;;2.30;99.90;3.70;95668.00;;;;5026729;28;20432;-69
2022/12/09 08:14:08;;;;;;;6.63;5.37;;;2.30;99.90;3.80;95671.00;;;;5028395;28;20935;-69
2022/12/09 08:17:01;;;;;;;8.30;4.67;;;2.40;99.90;4.00;95671.00;;;;5020416;28;20538;-68
2022/12/09 08:19:50;;;;;;;10.47;6.33;;;2.40;99.90;4.00;95671.00;;;;5026375;28;20955;-68
2022/12/09 08:22:39;;;;;;;7.93;4.70;;;2.50;99.90;4.00;95663.00;;;;5024826;28;20778;-68
2022/12/09 08:25:28;;;;;;;8.73;5.77;;;2.60;99.90;4.00;95667.00;;;;5020440;28;20779;-68
2022/12/09 08:28:17;;;;;;;6.37;4.23;;;2.50;99.90;3.90;95665.00;;;;5028853;28;20444;-68
2022/12/09 08:31:07;;;;;;;7.77;5.07;;;2.60;99.90;4.00;95663.00;;;;5025643;28;20808;-68
2022/12/09 08:33:58;;;;;;;5.20;3.67;;;2.60;99.90;4.20;95656.00;;;;5033021;28;20415;-68
2022/12/09 08:36:46;;;;;;;7.40;4.70;;;2.70;99.90;4.10;95660.00;;;;5044985;28;20463;-68
2022/12/09 08:39:35;;;;;;;5.00;4.03;;;2.70;99.90;4.00;95670.00;;;;5029555;28;20251;-68
2022/12/09 08:42:25;;;;;;;4.83;3.97;;;2.70;99.90;4.20;95658.00;;;;5041866;28;20216;-68
2022/12/09 08:45:13;;;;;;;9.90;4.93;;;2.70;99.90;4.20;95650.00;;;;5028382;28;20194;-68
2022/12/09 08:48:02;;;;;;;5.40;4.50;;;2.80;99.90;4.20;95651.00;;;;5035948;28;20547;-68
2022/12/09 08:50:56;;;;;;;7.27;5.00;;;2.80;99.90;4.20;95641.00;;;;5033325;28;20417;-68
2022/12/09 08:53:45;;;;;;;8.60;4.87;;;2.80;99.90;4.00;95636.00;;;;5029880;28;20202;-68
2022/12/09 08:56:34;;;;;;;11.33;4.47;;;2.80;99.90;3.80;95636.00;;;;5028111;28;20224;-68
2022/12/09 08:59:23;;;;;;;4.53;3.93;;;2.80;99.90;3.70;95629.00;;;;5038834;28;20423;-68
2022/12/09 09:02:12;;;;;;;4.27;3.87;;;2.70;99.90;3.70;95618.00;;;;5038638;28;20208;-68
2022/12/09 09:05:01;;;;;;;8.43;3.87;;;2.70;99.90;4.00;95615.00;;;;5022144;28;20436;-68
2022/12/09 09:07:52;;;;;;;7.97;4.73;;;2.70;99.90;4.10;95610.00;;;;5024356;28;20468;-68
2022/12/09 09:10:40;;;;;;;6.90;4.63;;;2.80;99.90;3.90;95607.00;;;;5027083;28;20209;-68
2022/12/09 09:13:29;;;;;;;4.30;3.53;;;2.70;99.90;4.00;95597.00;;;;5029774;28;20582;-69
2022/12/09 09:16:20;;;;;;;9.03;5.17;;;2.70;99.90;4.00;95597.00;;;;5023930;28;20464;-68
2022/12/09 09:19:15;;;;;;;12.10;4.67;;;2.80;99.90;4.00;95617.00;;;;5038227;28;21166;-69
2022/12/09 09:22:04;;;;;;;4.87;4.33;;;2.80;99.90;4.10;95605.00;;;;5040566;28;20208;-68
2022/12/09 09:24:54;;;;;;;6.40;4.77;;;2.80;99.90;4.00;95597.00;;;;5027076;28;20280;-69
2022/12/09 09:27:43;;;;;;;7.03;4.10;;;2.80;99.90;4.00;95599.00;;;;5031889;28;20220;-68
2022/12/09 09:30:33;;;;;;;5.40;3.77;;;2.80;99.90;4.10;95607.00;;;;5034341;28;20585;-69
2022/12/09 09:33:22;;;;;;;5.50;4.47;;;2.80;99.90;4.20;95609.00;;;;5041216;28;20423;-68
2022/12/09 09:36:16;;;;;;;5.37;4.23;;;2.80;99.90;4.30;95610.00;;;;5040988;23;20265;-88
2022/12/09 09:39:05;;;;;;;14.47;4.43;;;2.90;99.90;4.40;95607.00;;;;5061906;28;20422;-86
2022/12/09 09:41:58;;;;;;;5.93;5.30;;;2.90;99.90;4.40;95615.00;;;;5084013;28;20418;-85
2022/12/09 09:44:52;;;;;;;8.63;4.87;;;2.90;99.90;4.60;95602.00;;;;5072631;28;20200;-89
2022/12/09 09:47:47;;;;;;;10.70;4.40;;;3.00;99.90;4.70;95589.00;;;;5068085;22;20243;-65
2022/12/09 09:50:43;;;;;;;5.23;4.53;;;3.10;99.90;4.70;95564.00;;;;5055204;28;20207;-66
2022/12/09 09:53:35;;;;;;;10.13;5.47;;;3.10;99.90;4.80;95546.00;;;;5040991;28;20194;-66
2022/12/09 09:56:28;;;;;;;6.40;4.67;;;3.20;99.90;4.80;95553.00;;;;5042353;28;20221;-66
2022/12/09 09:59:28;;;;;;;5.63;4.40;;;3.30;99.90;4.80;95557.00;;;;5023334;28;20205;-66
2022/12/09 10:02:22;;;;;;;6.60;4.97;;;3.30;99.90;4.90;95537.00;;;;5015283;28;20208;-66
2022/12/09 10:05:22;;;;;;;7.40;5.00;;;3.40;99.90;5.00;95537.00;;;;5022525;28;20193;-66
2022/12/09 10:08:32;;;;;;;10.17;5.07;;;3.40;99.90;5.00;95546.00;;;;5027350;28;20279;-65
2022/12/09 10:11:29;;;;;;;9.93;5.50;;;3.50;99.90;5.00;95527.00;;;;5025915;28;20220;-65
2022/12/09 10:14:27;;;;;;;8.47;6.27;;;3.50;99.90;4.90;95535.00;;;;5029451;28;20201;-66
2022/12/09 10:17:27;;;;;;;9.13;4.90;;;3.50;99.90;5.00;95526.00;;;;5029088;28;20291;-66
2022/12/09 10:20:19;;;;;;;10.23;5.53;;;4.20;99.90;5.00;95518.00;;;;5029695;28;20220;-64
2022/12/09 10:23:14;;;;;;;6.43;4.70;;;3.50;99.90;5.10;95504.00;;;;5030017;28;20696;-65
2022/12/09 10:26:06;;;;;;;7.93;5.40;;;3.50;99.90;5.10;95498.00;;;;5028590;28;20201;-65
2022/12/09 10:29:12;;;;;;;10.53;5.63;;;3.50;99.90;5.20;95505.00;;;;5020529;28;20280;-63
2022/12/09 10:32:07;;;;;;;7.73;4.60;;;3.60;99.90;5.10;95499.00;;;;5024518;28;20214;-65
2022/12/09 10:34:57;;;;;;;7.87;5.93;;;3.70;99.90;5.10;95514.00;;;;5025741;28;20693;-65
2022/12/09 10:37:47;;;;;;;8.23;6.00;;;3.70;99.90;5.20;95495.00;;;;5026783;28;21000;-65
2022/12/09 10:40:53;;;;;;;8.83;6.17;;;3.70;99.90;5.10;95491.00;;;;5028804;28;20685;-65
2022/12/09 10:43:42;;;;;;;8.33;5.50;;;3.70;99.90;5.20;95500.00;;;;5024344;28;20201;-65
2022/12/09 10:46:31;;;;;;;6.97;5.47;;;3.70;99.90;5.30;95497.00;;;;5031050;28;20713;-65
2022/12/09 10:49:23;;;;;;;7.60;5.07;;;3.70;99.90;5.20;95486.00;;;;5035668;28;20201;-64
2022/12/09 10:52:21;;;;;;;7.63;6.03;;;3.70;99.90;5.10;95487.00;;;;5037026;28;20681;-65
2022/12/09 10:55:24;;;;;;;6.43;5.70;;;3.70;99.90;5.20;95477.00;;;;5032220;28;20255;-65
2022/12/09 10:58:18;;;;;;;6.83;5.00;;;3.70;99.90;5.20;95473.00;;;;5022740;28;20221;-65
2022/12/09 11:01:10;;;;;;;12.53;6.67;;;3.70;99.90;5.20;95466.00;;;;5026220;28;20653;-65
2022/12/09 11:04:00;;;;;;;10.80;6.30;;;3.70;99.90;5.10;95463.00;;;;5030360;28;20200;-65
2022/12/09 11:06:53;;;;;;;9.23;5.60;;;3.70;99.90;5.20;95460.00;;;;5034122;28;20224;-65
2022/12/09 11:09:49;;;;;;;11.27;5.70;;;3.70;99.90;5.20;95453.00;;;;5027695;28;20216;-63
2022/12/09 11:12:38;;;;;;;7.13;5.37;;;3.70;99.90;5.30;95441.00;;;;5029826;28;20224;-64
2022/12/09 11:15:34;;;;;;;12.60;5.50;;;3.70;99.90;5.20;95437.00;;;;5032115;28;20248;-64
2022/12/09 11:18:28;;;;;;;10.67;5.37;;;3.70;99.90;5.20;95439.00;;;;5013101;28;20213;-63
2022/12/09 11:21:33;;;;;;;8.63;6.00;;;3.70;99.90;5.20;95429.00;;;;5022762;28;20248;-65
2022/12/09 11:24:26;;;;;;;10.63;6.20;;;3.70;99.90;5.10;95433.00;;;;5038951;28;20220;-65
2022/12/09 11:27:31;;;;;;;8.13;5.50;;;3.70;99.90;5.20;95434.00;;;;5025793;28;20229;-65
2022/12/09 11:30:22;;;;;;;6.63;5.47;;;3.70;99.90;5.20;95426.00;;;;5025179;28;20653;-64
2022/12/09 11:33:25;;;;;;;7.33;5.13;;;3.70;99.90;5.20;95431.00;;;;5023473;28;20212;-63
2022/12/09 11:36:22;;;;;;;8.37;5.20;;;3.70;99.90;5.20;95418.00;;;;5025539;28;20236;-64
2022/12/09 11:39:25;;;;;;;9.90;5.50;;;3.70;99.90;5.00;95413.00;;;;5018483;28;20228;-64
2022/12/09 11:42:21;;;;;;;5.73;4.60;;;3.70;99.90;5.00;95404.00;;;;5025939;28;20201;-65
2022/12/09 11:45:24;;;;;;;10.23;5.50;;;3.70;99.90;5.10;95414.00;;;;5024825;28;20251;-64
2022/12/09 11:48:24;;;;;;;9.53;4.67;;;3.70;99.90;5.20;95392.00;;;;5025546;28;20236;-65
2022/12/09 11:51:22;;;;;;;6.53;5.40;;;3.70;99.90;5.00;95394.00;;;;5029840;28;20205;-65
2022/12/09 11:54:16;;;;;;;10.93;5.50;;;3.70;99.90;5.20;95397.00;;;;5023640;28;20197;-65
2022/12/09 11:57:17;;;;;;;7.57;4.90;;;3.70;99.90;5.10;95388.00;;;;5025992;28;20224;-65
2022/12/09 12:00:17;;;;;;;7.50;5.07;;;3.70;99.90;4.90;95380.00;;;;5028112;28;20212;-63
2022/12/09 12:03:14;;;;;;;6.13;5.50;;;3.80;99.90;5.20;95388.00;;;;5021444;28;20205;-63
2022/12/09 12:06:08;;;;;;;10.70;5.13;;;3.80;99.90;5.20;95387.00;;;;5027606;28;20566;-65
2022/12/09 12:09:04;;;;;;;5.70;4.43;;;3.80;99.90;5.30;95378.00;;;;5024966;28;20202;-65
2022/12/09 12:12:01;;;;;;;8.57;4.33;;;3.80;99.90;5.30;95366.00;;;;5027656;28;20197;-65
2022/12/09 12:14:51;;;;;;;6.40;4.37;;;3.90;99.90;5.40;95361.00;;;;5030113;28;20586;-65
2022/12/09 12:17:43;;;;;;;9.23;4.97;;;3.90;99.90;5.50;95351.00;;;;5024060;28;20225;-65
2022/12/09 12:20:49;;;;;;;8.20;4.90;;;4.00;99.90;5.50;95368.00;;;;5030091;28;20585;-63
2022/12/09 12:24:04;;;;;;;4.23;3.83;;;4.00;99.90;5.40;95350.00;;;;5030502;28;20749;-65
2022/12/09 12:27:07;;;;;;;8.77;4.30;;;4.00;99.90;5.20;95348.00;;;;5019258;28;20218;-65
2022/12/09 12:30:03;;;;;;;6.23;4.33;;;4.00;99.90;5.20;95342.00;;;;5024125;28;20213;-64
2022/12/09 12:33:06;;;;;;;5.87;4.63;;;3.90;99.90;5.30;95332.00;;;;5023822;28;20775;-65
2022/12/09 12:36:27;;;;;;;6.87;5.07;;;4.00;99.90;5.30;95332.00;;;;5027470;28;20307;-64
2022/12/09 12:39:32;;;;;;;8.57;3.70;;;4.00;99.90;5.40;95305.00;;;;5024089;28;20217;-64
2022/12/09 12:42:35;;;;;;;7.97;4.67;;;4.00;99.90;5.20;95304.00;;;;5031105;28;20209;-64
2022/12/09 12:48:53;;;;;;;8.03;5.03;;;4.00;99.90;5.20;95307.00;;;;5005722;28;20692;-64
2022/12/09 12:51:54;;;;;;;8.27;4.77;;;4.00;99.90;5.10;95293.00;;;;5034126;28;20585;-65
2022/12/09 12:54:53;;;;;;;4.60;3.73;;;3.90;99.90;5.10;95296.00;;;;5028312;28;20884;-65
2022/12/09 12:57:52;;;;;;;7.83;4.23;;;3.90;99.90;5.20;95296.00;;;;5028857;28;20600;-65
2022/12/09 13:00:55;;;;;;;7.67;4.83;;;3.90;99.90;5.40;95293.00;;;;5029588;28;21015;-65
2022/12/09 13:03:56;;;;;;;6.63;4.50;;;3.90;99.90;5.10;95283.00;;;;5029779;28;20676;-64